LYBE Información de aeropuertos

Información de pistas
Pista 12 Longitud 11155 ft Ancho 148 ft
Elevación 318 ft Umbral 0 ft Rumbo 122
Pista 30 Longitud 11155 ft Ancho 148 ft
Elevación 335 ft Umbral 1312 ft Rumbo 302
Frecuencias
Tipo APP Nombre APP Frequencia 119.1 MHZ
Tipo ATIS Nombre INFO Frequencia 122.925 MHZ
Tipo TWR Nombre TWR Frequencia 118.1 MHZ
Radioayudas
Tipo VOR-DME Nombre Beograd Frequencia 112300 KHZ
Tipo NDB Nombre Beograd Frequencia 316 KHZ
Tipo NDB Nombre Beograd Frequencia 380 KHZ
Tipo NDB Nombre Beograd Frequencia 355 KHZ
Información meteorológica y NOTAM
ADDS - METARS form results

(0305 UTC 20 January 2021)
Data provider http://aviationweather.gov/metar/data/
 
METAR text: LYBE 200300Z 18011KT CAVOK 03/M04 Q1019 R12/1///95 NOSIG
Conditions at: LYBE (BELGRADE/SURCIN , CS) observed 0300 UTC 20 January 2021
Temperature: 3.0°C (37°F)
Dewpoint: -4.0°C (25°F) [RH = 60%]
Pressure (altimeter): 30.09 inches Hg (1019.0 mb)
Winds: from the S (180 degrees) at 13 MPH (11 knots; 5.7 m/s)
Visibility: 6 or more miles (10+ km)
Ceiling: ceiling and visibility are OK
Clouds: unknown
Weather: no significant weather observed at this time

METAR text: LYBE 200230Z 18011KT CAVOK 03/M04 Q1020 R12/1///95 NOSIG
Conditions at: LYBE (BELGRADE/SURCIN , CS) observed 0230 UTC 20 January 2021
Temperature: 3.0°C (37°F)
Dewpoint: -4.0°C (25°F) [RH = 60%]
Pressure (altimeter): 30.12 inches Hg (1020.0 mb)
Winds: from the S (180 degrees) at 13 MPH (11 knots; 5.7 m/s)
Visibility: 6 or more miles (10+ km)
Ceiling: ceiling and visibility are OK
Clouds: unknown
Weather: no significant weather observed at this time

Forecast for: LYBE (BELGRADE/SURCIN , CS)
Text: TAF LYBE 192300Z 2000/2024 18008KT CAVOK TX08/2012Z TN01/2006Z
Forecast period: 0000 UTC 20 January 2021 to 0000 UTC 21 January 2021
Forecast type: FROM: standard forecast or significant change
Winds: from the S (180 degrees) at 9 MPH (8 knots; 4.1 m/s)
Visibility: 6 or more miles (10+ km)
Ceiling: unknown
Clouds: missing
Weather: no significant weather forecast for this period